Time;durP1;ratioP1;P1;durP2;ratioP2;P2;SDS_P1;SDS_P2;PMS_P1;PMS_P2;Temp;Humidity;BMP_temperature;BMP_pressure;BME280_temperature;BME280_humidity;BME280_pressure;Samples;Min_cycle;Max_cycle;Signal;HPM_P1;HPM_P2
2023/11/03 00:01:07;;;;;;;2.72;1.17;;;;;;;;;;5056987;28;20822;-81
2023/11/03 00:03:33;;;;;;;5.80;1.53;;;;;;;;;;5057931;28;20174;-81
2023/11/03 00:05:59;;;;;;;5.47;1.33;;;;;;;;;;5057911;28;20488;-80
2023/11/03 00:08:25;;;;;;;4.10;1.00;;;;;;;;;;5057657;28;20217;-80
2023/11/03 00:10:54;;;;;;;3.60;1.07;;;;;;;;;;5054827;28;20235;-80
2023/11/03 00:13:22;;;;;;;4.10;1.20;;;;;;;;;;5037485;28;20781;-80
2023/11/03 00:15:48;;;;;;;2.05;1.20;;;;;;;;;;5037725;28;20174;-77
2023/11/03 00:18:14;;;;;;;2.50;0.70;;;;;;;;;;5039196;28;20193;-77
2023/11/03 00:20:40;;;;;;;3.17;0.80;;;;;;;;;;5037391;28;20925;-78
2023/11/03 00:23:07;;;;;;;3.53;1.02;;;;;;;;;;5038119;28;20444;-77
2023/11/03 00:25:34;;;;;;;4.28;1.58;;;;;;;;;;5039127;28;20638;-78
2023/11/03 00:28:00;;;;;;;2.78;1.00;;;;;;;;;;5037837;28;20297;-77
2023/11/03 00:30:26;;;;;;;2.35;0.98;;;;;;;;;;5054263;28;20182;-77
2023/11/03 00:32:56;;;;;;;2.10;0.90;;;;;;;;;;5040844;28;20174;-77
2023/11/03 00:35:21;;;;;;;2.25;0.90;;;;;;;;;;5057898;28;20184;-77
2023/11/03 00:37:49;;;;;;;3.10;1.17;;;;;;;;;;5058057;28;21061;-77
2023/11/03 00:40:17;;;;;;;2.33;0.90;;;;;;;;;;5041216;28;20428;-78
2023/11/03 00:42:43;;;;;;;6.53;1.10;;;;;;;;;;5041079;28;20185;-80
2023/11/03 00:45:10;;;;;;;3.07;1.10;;;;;;;;;;5052768;28;20251;-79
2023/11/03 00:47:36;;;;;;;4.82;1.00;;;;;;;;;;5047659;28;20527;-79
2023/11/03 00:50:02;;;;;;;1.60;1.00;;;;;;;;;;5036130;28;20225;-80
2023/11/03 00:52:28;;;;;;;2.65;0.90;;;;;;;;;;5037279;28;20409;-79
2023/11/03 00:54:54;;;;;;;2.90;1.30;;;;;;;;;;5038028;28;20256;-81
2023/11/03 00:57:20;;;;;;;5.40;0.90;;;;;;;;;;5035729;28;20431;-80
2023/11/03 00:59:49;;;;;;;2.85;1.17;;;;;;;;;;5053037;28;20233;-80
2023/11/03 01:02:15;;;;;;;2.00;1.00;;;;;;;;;;5034579;28;20174;-81
2023/11/03 01:04:41;;;;;;;3.30;1.00;;;;;;;;;;5037562;28;20507;-81
2023/11/03 01:07:07;;;;;;;1.70;0.97;;;;;;;;;;5037682;28;20209;-80
2023/11/03 01:09:34;;;;;;;3.92;1.52;;;;;;;;;;5037508;28;20960;-81
2023/11/03 01:12:00;;;;;;;2.55;0.80;;;;;;;;;;5040312;28;20190;-80
2023/11/03 01:14:32;;;;;;;1.27;0.70;;;;;;;;;;5039720;28;20221;-80
2023/11/03 01:16:58;;;;;;;4.80;1.17;;;;;;;;;;5039798;28;20232;-81
2023/11/03 01:19:25;;;;;;;4.07;1.30;;;;;;;;;;5019425;28;20182;-80
2023/11/03 01:21:51;;;;;;;1.58;0.90;;;;;;;;;;5035734;28;20432;-80
2023/11/03 01:24:17;;;;;;;5.07;1.30;;;;;;;;;;5036216;28;20178;-80
2023/11/03 01:26:43;;;;;;;2.28;1.10;;;;;;;;;;5049131;28;20212;-80
2023/11/03 01:29:09;;;;;;;1.27;1.13;;;;;;;;;;5055780;28;20217;-81
2023/11/03 01:31:36;;;;;;;2.67;1.20;;;;;;;;;;5039190;28;20412;-81
2023/11/03 01:34:05;;;;;;;1.00;0.88;;;;;;;;;;5057252;28;20408;-80
2023/11/03 01:36:31;;;;;;;1.95;0.82;;;;;;;;;;5048584;28;20232;-80
2023/11/03 01:38:57;;;;;;;1.55;0.88;;;;;;;;;;5020043;28;20186;-80
2023/11/03 01:41:23;;;;;;;3.35;0.90;;;;;;;;;;5036215;28;20210;-81
2023/11/03 01:44:09;;;;;;;1.63;0.90;;;;;;;;;;5036765;28;20174;-80
2023/11/03 01:46:36;;;;;;;2.33;0.82;;;;;;;;;;5035730;28;20763;-80
2023/11/03 01:49:03;;;;;;;3.38;0.95;;;;;;;;;;5037244;28;20217;-80
2023/11/03 01:51:29;;;;;;;2.75;1.50;;;;;;;;;;5047451;28;20181;-80
2023/11/03 01:53:55;;;;;;;4.47;0.80;;;;;;;;;;5045236;28;20182;-81
2023/11/03 01:56:21;;;;;;;1.25;0.75;;;;;;;;;;5035879;28;20186;-80
2023/11/03 01:58:47;;;;;;;3.25;0.70;;;;;;;;;;5037025;28;20208;-80
2023/11/03 02:01:13;;;;;;;5.45;1.20;;;;;;;;;;5035573;28;20230;-80
2023/11/03 02:03:39;;;;;;;2.95;1.15;;;;;;;;;;5035333;28;20186;-81
2023/11/03 02:06:06;;;;;;;1.87;1.00;;;;;;;;;;5036660;28;20242;-81
2023/11/03 02:08:32;;;;;;;2.08;1.23;;;;;;;;;;5034221;28;20475;-82
2023/11/03 02:10:58;;;;;;;1.30;0.77;;;;;;;;;;5044260;28;20301;-82
2023/11/03 02:13:24;;;;;;;1.33;0.87;;;;;;;;;;5034781;28;20213;-83
2023/11/03 02:15:50;;;;;;;1.87;0.80;;;;;;;;;;5034699;28;20409;-81
2023/11/03 02:18:17;;;;;;;1.92;1.02;;;;;;;;;;5034845;28;20444;-82
2023/11/03 02:20:43;;;;;;;2.15;0.80;;;;;;;;;;5018158;28;20174;-82
2023/11/03 02:23:09;;;;;;;1.30;0.70;;;;;;;;;;5018702;28;20626;-81
2023/11/03 02:25:35;;;;;;;1.38;0.88;;;;;;;;;;5036122;28;20201;-82
2023/11/03 02:28:03;;;;;;;3.10;1.27;;;;;;;;;;5034762;28;20210;-82
2023/11/03 02:30:29;;;;;;;1.52;0.80;;;;;;;;;;5036144;28;20438;-81
2023/11/03 02:32:55;;;;;;;2.60;1.10;;;;;;;;;;5051688;28;20280;-81
2023/11/03 02:35:20;;;;;;;1.50;1.03;;;;;;;;;;5035988;28;20447;-80
2023/11/03 02:37:47;;;;;;;4.20;0.80;;;;;;;;;;5035594;28;20412;-81
2023/11/03 02:40:13;;;;;;;4.40;0.90;;;;;;;;;;5043200;28;20432;-81
2023/11/03 02:42:39;;;;;;;3.15;1.02;;;;;;;;;;5040937;28;20206;-81
2023/11/03 02:45:06;;;;;;;2.00;1.33;;;;;;;;;;5035701;28;20201;-80
2023/11/03 02:47:32;;;;;;;1.88;1.05;;;;;;;;;;5035004;28;20428;-81
2023/11/03 02:50:00;;;;;;;2.60;1.00;;;;;;;;;;5035105;28;20602;-80
2023/11/03 02:52:26;;;;;;;4.47;1.20;;;;;;;;;;5018955;28;20437;-81
2023/11/03 02:54:53;;;;;;;3.13;1.00;;;;;;;;;;5034257;28;20653;-81
2023/11/03 02:57:19;;;;;;;4.13;1.17;;;;;;;;;;5050152;28;20188;-82
2023/11/03 02:59:45;;;;;;;3.17;1.00;;;;;;;;;;5054185;28;20596;-82
2023/11/03 03:02:11;;;;;;;7.37;1.20;;;;;;;;;;5056185;28;20182;-82
2023/11/03 03:04:37;;;;;;;2.90;0.90;;;;;;;;;;5021640;28;20432;-83
2023/11/03 03:07:03;;;;;;;3.40;1.33;;;;;;;;;;5014634;28;20179;-82
2023/11/03 03:09:29;;;;;;;3.67;1.35;;;;;;;;;;5015634;28;20488;-82
2023/11/03 03:11:55;;;;;;;4.57;1.27;;;;;;;;;;5016100;28;20179;-82
2023/11/03 03:14:21;;;;;;;1.90;0.80;;;;;;;;;;5031080;28;20225;-82
2023/11/03 03:16:50;;;;;;;2.60;1.00;;;;;;;;;;5016033;28;20187;-81
2023/11/03 03:19:16;;;;;;;4.82;1.25;;;;;;;;;;5029845;28;20432;-81
2023/11/03 03:21:42;;;;;;;2.55;1.00;;;;;;;;;;5039373;28;20175;-82
2023/11/03 03:24:08;;;;;;;3.90;0.90;;;;;;;;;;5038031;28;20181;-82
2023/11/03 03:26:34;;;;;;;4.15;1.25;;;;;;;;;;5039527;28;20487;-81
2023/11/03 03:29:00;;;;;;;5.78;0.90;;;;;;;;;;5021603;28;20650;-82
2023/11/03 03:31:26;;;;;;;1.42;0.90;;;;;;;;;;5039180;28;20201;-81
2023/11/03 03:33:52;;;;;;;4.67;1.20;;;;;;;;;;5033693;28;20186;-81
2023/11/03 03:36:18;;;;;;;3.70;1.15;;;;;;;;;;5038527;28;20413;-82
2023/11/03 03:38:45;;;;;;;3.65;0.95;;;;;;;;;;5021508;28;20197;-82
2023/11/03 03:41:12;;;;;;;1.95;1.20;;;;;;;;;;5038876;28;20220;-82
2023/11/03 03:43:38;;;;;;;3.17;0.90;;;;;;;;;;5037650;28;20197;-82
2023/11/03 03:46:04;;;;;;;3.90;0.90;;;;;;;;;;5039226;28;20229;-81
2023/11/03 03:48:30;;;;;;;7.57;1.30;;;;;;;;;;5043191;28;20558;-82
2023/11/03 03:50:56;;;;;;;3.90;1.20;;;;;;;;;;5058768;28;20465;-82
2023/11/03 03:53:22;;;;;;;3.43;1.13;;;;;;;;;;5033156;28;20427;-81
2023/11/03 03:55:48;;;;;;;2.55;0.90;;;;;;;;;;5037977;28;20405;-82
2023/11/03 03:58:14;;;;;;;5.00;1.40;;;;;;;;;;5021464;28;20604;-82
2023/11/03 04:00:40;;;;;;;5.70;1.37;;;;;;;;;;5037542;28;20550;-82
2023/11/03 04:03:06;;;;;;;9.83;1.53;;;;;;;;;;5037952;28;20482;-82
2023/11/03 04:05:32;;;;;;;4.33;1.27;;;;;;;;;;5022367;28;20420;-81
2023/11/03 04:07:58;;;;;;;3.40;1.27;;;;;;;;;;5057072;28;20463;-81
2023/11/03 04:10:24;;;;;;;4.32;1.65;;;;;;;;;;5058768;28;20466;-81
2023/11/03 04:12:50;;;;;;;5.07;1.20;;;;;;;;;;5040447;28;20173;-81
2023/11/03 04:15:16;;;;;;;4.83;1.20;;;;;;;;;;5026911;28;20324;-81
2023/11/03 04:17:42;;;;;;;11.88;2.08;;;;;;;;;;5036922;28;20416;-82
2023/11/03 04:20:08;;;;;;;4.53;1.13;;;;;;;;;;5021449;28;20186;-82
2023/11/03 04:22:34;;;;;;;7.78;1.60;;;;;;;;;;5021097;28;20423;-82
2023/11/03 04:25:00;;;;;;;1.85;1.00;;;;;;;;;;5020782;28;20232;-82
2023/11/03 04:27:26;;;;;;;3.93;1.63;;;;;;;;;;5020825;28;20193;-82
2023/11/03 04:29:52;;;;;;;6.00;1.40;;;;;;;;;;5038684;28;20556;-82
2023/11/03 04:32:18;;;;;;;5.97;1.80;;;;;;;;;;5057042;28;20415;-82
2023/11/03 04:34:44;;;;;;;3.83;1.30;;;;;;;;;;5044853;28;20428;-82
2023/11/03 04:37:10;;;;;;;6.53;1.60;;;;;;;;;;5037806;28;20512;-82
2023/11/03 04:39:36;;;;;;;4.50;2.00;;;;;;;;;;5053787;28;20421;-82
2023/11/03 04:42:02;;;;;;;13.07;1.70;;;;;;;;;;5036551;28;20433;-81
2023/11/03 04:44:28;;;;;;;11.25;2.13;;;;;;;;;;5036886;28;20429;-81
2023/11/03 04:46:54;;;;;;;5.00;2.10;;;;;;;;;;5037442;28;20293;-82
2023/11/03 04:49:20;;;;;;;8.10;1.90;;;;;;;;;;5036490;28;20938;-81
2023/11/03 04:51:46;;;;;;;8.17;2.00;;;;;;;;;;5036053;28;20205;-83
2023/11/03 04:54:13;;;;;;;11.53;2.10;;;;;;;;;;5036625;28;20897;-81
2023/11/03 04:56:39;;;;;;;6.35;1.90;;;;;;;;;;5024544;28;20823;-82
2023/11/03 04:59:05;;;;;;;7.90;3.00;;;;;;;;;;5039513;28;20185;-82
2023/11/03 05:01:33;;;;;;;6.38;1.35;;;;;;;;;;5039698;28;20228;-82
2023/11/03 05:03:59;;;;;;;6.72;1.38;;;;;;;;;;5039744;28;20239;-81
2023/11/03 05:06:25;;;;;;;9.33;2.07;;;;;;;;;;5056216;28;20182;-82
2023/11/03 05:08:51;;;;;;;10.75;2.00;;;;;;;;;;5044769;28;20461;-82
2023/11/03 05:11:17;;;;;;;7.57;1.90;;;;;;;;;;5037497;28;20170;-82
2023/11/03 05:13:44;;;;;;;5.93;1.70;;;;;;;;;;5053131;28;20421;-82
2023/11/03 05:16:10;;;;;;;7.10;1.63;;;;;;;;;;5037416;28;20405;-82
2023/11/03 05:18:38;;;;;;;7.80;2.17;;;;;;;;;;5052672;28;20552;-82
2023/11/03 05:21:04;;;;;;;7.55;1.92;;;;;;;;;;5035780;28;20201;-82
2023/11/03 05:23:30;;;;;;;7.47;2.25;;;;;;;;;;5036930;28;20178;-82
2023/11/03 05:25:56;;;;;;;9.23;2.17;;;;;;;;;;5046933;28;20630;-82
2023/11/03 05:28:22;;;;;;;8.65;1.50;;;;;;;;;;5036071;28;20807;-82
2023/11/03 05:30:48;;;;;;;5.50;1.37;;;;;;;;;;5036983;28;20261;-82
2023/11/03 05:33:17;;;;;;;6.40;2.13;;;;;;;;;;5035583;28;20484;-82
2023/11/03 05:35:44;;;;;;;5.80;1.98;;;;;;;;;;5035487;28;20174;-82
2023/11/03 05:38:10;;;;;;;10.32;2.03;;;;;;;;;;5036579;28;20196;-81
2023/11/03 05:40:36;;;;;;;5.63;1.70;;;;;;;;;;5037017;28;20178;-81
2023/11/03 05:43:02;;;;;;;4.32;1.60;;;;;;;;;;5035487;28;20405;-82
2023/11/03 05:45:28;;;;;;;3.75;1.67;;;;;;;;;;5035767;28;20182;-82
2023/11/03 05:47:54;;;;;;;3.50;1.90;;;;;;;;;;5035513;28;20189;-82
2023/11/03 05:50:20;;;;;;;8.02;1.77;;;;;;;;;;5035777;28;20420;-82
2023/11/03 05:52:46;;;;;;;8.87;2.27;;;;;;;;;;5035393;28;20517;-82
2023/11/03 05:55:12;;;;;;;4.33;2.10;;;;;;;;;;5035570;28;20473;-82
2023/11/03 05:57:38;;;;;;;6.17;2.07;;;;;;;;;;5018903;28;20428;-82
2023/11/03 06:00:08;;;;;;;5.30;1.73;;;;;;;;;;5034983;28;20572;-82
2023/11/03 06:02:36;;;;;;;7.85;1.77;;;;;;;;;;5019360;28;20413;-82
2023/11/03 06:05:03;;;;;;;8.45;1.80;;;;;;;;;;5034709;28;20721;-83
2023/11/03 06:07:29;;;;;;;5.82;1.42;;;;;;;;;;5035455;28;20687;-83
2023/11/03 06:09:56;;;;;;;6.05;1.98;;;;;;;;;;5018755;28;20344;-82
2023/11/03 06:12:22;;;;;;;7.05;1.83;;;;;;;;;;5035189;28;20289;-82
2023/11/03 06:14:48;;;;;;;9.85;2.15;;;;;;;;;;5049477;28;20688;-82
2023/11/03 06:17:14;;;;;;;6.93;1.92;;;;;;;;;;5036470;28;20198;-82
2023/11/03 06:19:40;;;;;;;7.55;1.60;;;;;;;;;;5036118;28;20651;-82
2023/11/03 06:22:06;;;;;;;4.50;1.63;;;;;;;;;;5034729;28;20269;-82
2023/11/03 06:24:32;;;;;;;5.85;2.28;;;;;;;;;;5047574;28;20425;-82
2023/11/03 06:26:59;;;;;;;10.10;1.80;;;;;;;;;;5035109;28;20182;-82
2023/11/03 06:29:29;;;;;;;5.07;1.90;;;;;;;;;;5052267;28;20499;-82
2023/11/03 06:31:55;;;;;;;10.50;1.85;;;;;;;;;;5036909;28;20603;-81
2023/11/03 06:34:21;;;;;;;8.73;2.25;;;;;;;;;;5036135;28;20210;-82
2023/11/03 06:36:47;;;;;;;7.80;2.00;;;;;;;;;;5034749;28;20186;-82
2023/11/03 06:39:14;;;;;;;12.73;2.53;;;;;;;;;;5035765;28;20463;-82
2023/11/03 06:41:40;;;;;;;6.55;1.42;;;;;;;;;;5034895;28;20409;-83
2023/11/03 06:44:06;;;;;;;6.50;2.10;;;;;;;;;;5033856;28;20547;-82
2023/11/03 06:46:32;;;;;;;4.40;1.40;;;;;;;;;;5018168;28;20429;-82
2023/11/03 06:48:58;;;;;;;9.47;2.50;;;;;;;;;;5033777;28;20208;-82
2023/11/03 06:51:25;;;;;;;4.43;1.70;;;;;;;;;;5037944;28;20520;-82
2023/11/03 06:53:51;;;;;;;8.07;1.70;;;;;;;;;;5034125;28;20416;-82
2023/11/03 06:56:17;;;;;;;7.83;1.70;;;;;;;;;;5038477;28;20182;-82
2023/11/03 06:58:43;;;;;;;7.67;2.00;;;;;;;;;;5038521;28;20429;-82
2023/11/03 07:01:09;;;;;;;3.80;1.53;;;;;;;;;;5039473;28;20464;-82
2023/11/03 07:03:35;;;;;;;6.18;1.45;;;;;;;;;;5038507;28;20421;-82
2023/11/03 07:06:03;;;;;;;8.23;1.65;;;;;;;;;;5038248;28;20197;-82
2023/11/03 07:08:30;;;;;;;5.75;1.67;;;;;;;;;;5046387;28;20246;-82
2023/11/03 07:10:58;;;;;;;5.30;1.80;;;;;;;;;;5058088;28;20184;-82
2023/11/03 07:13:24;;;;;;;6.95;1.50;;;;;;;;;;5058284;28;20626;-82
2023/11/03 07:15:50;;;;;;;10.18;2.30;;;;;;;;;;5050013;28;20264;-82
2023/11/03 07:18:16;;;;;;;4.97;1.40;;;;;;;;;;5039427;28;20214;-82
2023/11/03 07:20:43;;;;;;;6.40;1.52;;;;;;;;;;5038961;28;20428;-82
2023/11/03 07:23:09;;;;;;;2.35;1.15;;;;;;;;;;5039598;28;20170;-82
2023/11/03 07:25:35;;;;;;;3.72;1.80;;;;;;;;;;5038124;28;20202;-82
2023/11/03 07:28:01;;;;;;;10.47;2.07;;;;;;;;;;5037174;28;20681;-82
2023/11/03 07:30:28;;;;;;;3.30;1.47;;;;;;;;;;5038349;28;20427;-82
2023/11/03 07:32:54;;;;;;;2.75;1.45;;;;;;;;;;5037961;28;20417;-82
2023/11/03 07:35:20;;;;;;;5.30;1.33;;;;;;;;;;5047289;28;20672;-82
2023/11/03 07:37:46;;;;;;;5.07;1.57;;;;;;;;;;5037597;28;20460;-82
2023/11/03 07:40:14;;;;;;;2.10;1.10;;;;;;;;;;5038970;28;20492;-82
2023/11/03 07:42:40;;;;;;;3.95;1.48;;;;;;;;;;5054459;28;20189;-82
2023/11/03 07:45:07;;;;;;;5.53;1.10;;;;;;;;;;5037592;28;20178;-82
2023/11/03 07:47:34;;;;;;;4.88;1.20;;;;;;;;;;5037821;28;20237;-82
2023/11/03 07:50:00;;;;;;;4.22;1.42;;;;;;;;;;5037864;28;20296;-81
2023/11/03 07:52:26;;;;;;;4.43;1.40;;;;;;;;;;5038948;28;20665;-81
2023/11/03 07:54:52;;;;;;;6.93;1.13;;;;;;;;;;5021246;28;20409;-81
2023/11/03 07:57:18;;;;;;;4.05;1.52;;;;;;;;;;5039060;28;20475;-81
2023/11/03 07:59:44;;;;;;;7.57;1.47;;;;;;;;;;5038962;28;20233;-82
2023/11/03 08:02:10;;;;;;;1.90;1.17;;;;;;;;;;5036624;28;20461;-81
2023/11/03 08:04:36;;;;;;;3.40;1.50;;;;;;;;;;5036747;28;20436;-81
2023/11/03 08:07:02;;;;;;;7.30;1.50;;;;;;;;;;5020116;28;20174;-81
2023/11/03 08:09:29;;;;;;;9.47;1.63;;;;;;;;;;5037255;28;20217;-81
2023/11/03 08:11:55;;;;;;;4.43;1.50;;;;;;;;;;5036847;28;20421;-81
2023/11/03 08:14:21;;;;;;;3.17;1.20;;;;;;;;;;5038370;28;20171;-82
2023/11/03 08:16:48;;;;;;;7.93;1.50;;;;;;;;;;5053540;28;20252;-82
2023/11/03 08:19:14;;;;;;;3.45;1.58;;;;;;;;;;5053028;28;20213;-81
2023/11/03 08:21:42;;;;;;;6.80;1.80;;;;;;;;;;5038005;28;20543;-82
2023/11/03 08:24:12;;;;;;;8.10;1.85;;;;;;;;;;5039110;28;20409;-81
2023/11/03 08:26:38;;;;;;;3.28;1.23;;;;;;;;;;5056833;28;20269;-81
2023/11/03 08:29:05;;;;;;;5.38;1.70;;;;;;;;;;5057728;28;20205;-81
2023/11/03 08:31:31;;;;;;;8.70;1.73;;;;;;;;;;5056588;28;20181;-81
2023/11/03 08:33:57;;;;;;;8.67;1.80;;;;;;;;;;5057472;28;20520;-81
2023/11/03 08:36:23;;;;;;;8.90;1.90;;;;;;;;;;5056265;28;20481;-81
2023/11/03 08:38:51;;;;;;;7.15;1.40;;;;;;;;;;5056312;28;20423;-82
2023/11/03 08:41:21;;;;;;;5.88;1.65;;;;;;;;;;5055873;28;20260;-81
2023/11/03 08:43:46;;;;;;;8.20;1.33;;;;;;;;;;5039193;28;20265;-81
2023/11/03 08:46:13;;;;;;;9.30;1.70;;;;;;;;;;5036998;28;20657;-81
2023/11/03 08:48:41;;;;;;;9.70;1.98;;;;;;;;;;5037440;28;20816;-81
2023/11/03 08:51:08;;;;;;;7.15;1.38;;;;;;;;;;5036742;28;20166;-81
2023/11/03 08:53:34;;;;;;;5.47;1.52;;;;;;;;;;5036274;28;20189;-81
2023/11/03 08:56:00;;;;;;;9.60;1.50;;;;;;;;;;5035973;28;20188;-81
2023/11/03 08:58:26;;;;;;;8.65;1.65;;;;;;;;;;5036471;28;20421;-81
2023/11/03 09:00:54;;;;;;;8.80;1.63;;;;;;;;;;5035602;28;20222;-81
2023/11/03 09:03:20;;;;;;;8.63;2.33;;;;;;;;;;5032111;28;20428;-81
2023/11/03 09:05:47;;;;;;;11.07;1.85;;;;;;;;;;5057103;28;20235;-82
2023/11/03 09:08:13;;;;;;;7.78;2.20;;;;;;;;;;5038883;28;20249;-82
2023/11/03 09:10:40;;;;;;;9.87;1.87;;;;;;;;;;5055541;28;20169;-82
2023/11/03 09:13:06;;;;;;;9.60;2.03;;;;;;;;;;5055334;28;20428;-82
2023/11/03 09:15:32;;;;;;;7.37;1.60;;;;;;;;;;5055068;28;20182;-82
2023/11/03 09:17:58;;;;;;;5.38;1.80;;;;;;;;;;5056039;28;20404;-82
2023/11/03 09:20:25;;;;;;;8.48;2.00;;;;;;;;;;5056395;28;20201;-81
2023/11/03 09:22:51;;;;;;;12.43;2.20;;;;;;;;;;5048170;28;20170;-82
2023/11/03 09:25:17;;;;;;;9.88;2.25;;;;;;;;;;5036319;28;20166;-81
2023/11/03 09:27:43;;;;;;;6.93;1.47;;;;;;;;;;5034595;28;20196;-81
2023/11/03 09:30:10;;;;;;;4.27;1.23;;;;;;;;;;5034591;28;20480;-81
2023/11/03 09:32:40;;;;;;;3.45;1.35;;;;;;;;;;5036595;28;20414;-81
2023/11/03 09:35:07;;;;;;;8.60;1.58;;;;;;;;;;5034602;28;20257;-81
2023/11/03 09:37:34;;;;;;;7.70;1.30;;;;;;;;;;5036131;28;20174;-82
2023/11/03 09:40:00;;;;;;;14.82;3.20;;;;;;;;;;5031368;28;20922;-82
2023/11/03 09:42:26;;;;;;;5.07;1.70;;;;;;;;;;5031455;28;20190;-82
2023/11/03 09:44:53;;;;;;;6.17;2.20;;;;;;;;;;5031198;28;20416;-81
2023/11/03 09:47:19;;;;;;;10.50;1.87;;;;;;;;;;5031234;28;20428;-81
2023/11/03 09:49:48;;;;;;;10.17;1.83;;;;;;;;;;5015672;28;20484;-82
2023/11/03 09:52:14;;;;;;;5.70;1.67;;;;;;;;;;5015868;28;20496;-81
2023/11/03 09:54:41;;;;;;;5.37;1.80;;;;;;;;;;5031607;28;20410;-81
2023/11/03 09:57:10;;;;;;;5.63;1.80;;;;;;;;;;5015755;28;20406;-81
2023/11/03 09:59:37;;;;;;;3.63;1.40;;;;;;;;;;5015694;28;20424;-84
2023/11/03 10:02:09;;;;;;;4.87;1.50;;;;;;;;;;5015393;28;20763;-82
2023/11/03 10:04:35;;;;;;;5.63;1.43;;;;;;;;;;5015940;28;20734;-82
2023/11/03 10:07:01;;;;;;;8.23;2.07;;;;;;;;;;5015656;28;20402;-83
2023/11/03 10:09:28;;;;;;;7.07;2.10;;;;;;;;;;5015502;28;20567;-82
2023/11/03 10:11:54;;;;;;;5.17;1.50;;;;;;;;;;5002489;28;20437;-82
2023/11/03 10:14:20;;;;;;;6.93;1.80;;;;;;;;;;5016735;28;20824;-82
2023/11/03 10:16:48;;;;;;;9.67;2.37;;;;;;;;;;5031171;28;20425;-81
2023/11/03 10:19:14;;;;;;;9.90;1.53;;;;;;;;;;5030976;28;20861;-81
2023/11/03 10:21:40;;;;;;;4.00;1.93;;;;;;;;;;5015883;28;20418;-81
2023/11/03 10:24:07;;;;;;;7.07;2.30;;;;;;;;;;5016422;28;20442;-82
2023/11/03 10:26:33;;;;;;;6.80;1.20;;;;;;;;;;5054603;28;20441;-81
2023/11/03 10:28:59;;;;;;;5.70;1.57;;;;;;;;;;5053592;28;20537;-81
2023/11/03 10:31:26;;;;;;;4.80;1.57;;;;;;;;;;5055323;28;20435;-81
2023/11/03 10:33:53;;;;;;;4.53;1.27;;;;;;;;;;5037802;28;20914;-81
2023/11/03 10:36:20;;;;;;;3.17;1.07;;;;;;;;;;5040675;28;20409;-81
2023/11/03 10:38:46;;;;;;;6.50;2.07;;;;;;;;;;5017708;28;20427;-81
2023/11/03 10:41:12;;;;;;;8.40;2.00;;;;;;;;;;5044069;28;20404;-81
2023/11/03 10:43:45;;;;;;;6.10;1.83;;;;;;;;;;5054218;28;20408;-81
2023/11/03 10:46:18;;;;;;;6.17;1.67;;;;;;;;;;5055015;28;20392;-81
2023/11/03 10:48:51;;;;;;;3.57;1.37;;;;;;;;;;5053608;28;20463;-81
2023/11/03 10:51:32;;;;;;;5.17;1.60;;;;;;;;;;5055353;28;20393;-81
2023/11/03 10:54:21;;;;;;;6.17;1.73;;;;;;;;;;5053892;28;20416;-81
2023/11/03 10:56:48;;;;;;;38.80;2.53;;;;;;;;;;5054467;28;20805;-81
2023/11/03 10:59:14;;;;;;;13.63;2.40;;;;;;;;;;5053378;28;20436;-81
2023/11/03 11:01:46;;;;;;;9.83;2.27;;;;;;;;;;5053501;28;20469;-81
2023/11/03 11:04:17;;;;;;;8.80;2.17;;;;;;;;;;5054802;28;20435;-81
2023/11/03 11:06:46;;;;;;;14.07;1.60;;;;;;;;;;5054021;28;20411;-81
2023/11/03 11:09:17;;;;;;;6.10;1.63;;;;;;;;;;5050090;28;20573;-81
2023/11/03 11:11:45;;;;;;;10.60;2.03;;;;;;;;;;5035242;28;20398;-82
2023/11/03 11:14:17;;;;;;;5.13;1.67;;;;;;;;;;5035433;28;20382;-81
2023/11/03 11:16:43;;;;;;;4.10;2.17;;;;;;;;;;5035165;28;20775;-81
2023/11/03 11:19:10;;;;;;;4.80;1.90;;;;;;;;;;5030151;28;20443;-81
2023/11/03 11:21:39;;;;;;;14.37;2.67;;;;;;;;;;5055088;28;20404;-81
2023/11/03 11:24:06;;;;;;;8.33;2.83;;;;;;;;;;5054994;28;20908;-81
2023/11/03 11:26:32;;;;;;;8.87;2.60;;;;;;;;;;5053971;28;20423;-81
2023/11/03 11:29:00;;;;;;;6.23;1.87;;;;;;;;;;5054019;28;20821;-81
2023/11/03 11:31:27;;;;;;;8.67;2.80;;;;;;;;;;5054963;28;20557;-82
2023/11/03 11:33:59;;;;;;;16.63;2.37;;;;;;;;;;5053497;28;20439;-82
2023/11/03 11:36:25;;;;;;;7.80;1.80;;;;;;;;;;5053049;28;20431;-81
2023/11/03 11:38:54;;;;;;;3.50;1.50;;;;;;;;;;5054337;28;20997;-81
2023/11/03 11:41:22;;;;;;;7.23;1.43;;;;;;;;;;5057059;28;20525;-81
2023/11/03 11:43:50;;;;;;;2.80;1.50;;;;;;;;;;5057566;28;20423;-81
2023/11/03 11:46:17;;;;;;;11.10;2.53;;;;;;;;;;5058764;28;20395;-81
2023/11/03 11:48:43;;;;;;;5.77;1.87;;;;;;;;;;5057981;28;20554;-81
2023/11/03 11:51:09;;;;;;;6.03;1.83;;;;;;;;;;5058379;28;20411;-82
2023/11/03 11:53:35;;;;;;;6.53;1.87;;;;;;;;;;5057823;28;20931;-81
2023/11/03 11:56:03;;;;;;;8.43;2.20;;;;;;;;;;5047833;28;20421;-81
2023/11/03 11:58:30;;;;;;;6.30;1.63;;;;;;;;;;5038116;28;20456;-81
2023/11/03 12:00:57;;;;;;;13.00;1.80;;;;;;;;;;5037168;28;20470;-81
2023/11/03 12:03:23;;;;;;;7.77;1.60;;;;;;;;;;5038257;28;20481;-81
2023/11/03 12:05:50;;;;;;;6.80;1.57;;;;;;;;;;5038505;28;20463;-81
2023/11/03 12:08:18;;;;;;;6.03;1.87;;;;;;;;;;5036555;28;20499;-81
2023/11/03 12:10:50;;;;;;;5.90;2.17;;;;;;;;;;5038085;28;20409;-81
2023/11/03 12:13:16;;;;;;;7.50;1.80;;;;;;;;;;5036820;28;20461;-82
2023/11/03 12:15:42;;;;;;;13.27;2.30;;;;;;;;;;5037867;28;20409;-82
2023/11/03 12:18:08;;;;;;;9.03;1.63;;;;;;;;;;5036994;28;20416;-82
2023/11/03 12:20:34;;;;;;;6.90;1.30;;;;;;;;;;5037780;28;20409;-82
2023/11/03 12:23:00;;;;;;;3.63;1.47;;;;;;;;;;5038346;28;20976;-81
2023/11/03 12:25:26;;;;;;;7.47;2.13;;;;;;;;;;5036622;28;20417;-82
2023/11/03 12:27:53;;;;;;;6.20;1.87;;;;;;;;;;5056031;28;20443;-81
2023/11/03 12:30:20;;;;;;;5.60;1.30;;;;;;;;;;5056220;28;20424;-81
2023/11/03 12:32:46;;;;;;;6.37;1.50;;;;;;;;;;5056499;28;20416;-81
2023/11/03 12:35:12;;;;;;;5.83;1.83;;;;;;;;;;5056615;28;20486;-81
2023/11/03 12:37:43;;;;;;;5.53;1.77;;;;;;;;;;5056564;28;20416;-81
2023/11/03 12:40:20;;;;;;;6.20;1.83;;;;;;;;;;5056456;28;20439;-82
2023/11/03 12:42:46;;;;;;;5.70;2.03;;;;;;;;;;5057591;28;20388;-81
2023/11/03 12:45:12;;;;;;;7.47;1.83;;;;;;;;;;5055928;28;20408;-81
2023/11/03 12:47:42;;;;;;;8.80;1.50;;;;;;;;;;5055767;28;20408;-82
2023/11/03 12:50:09;;;;;;;6.07;1.40;;;;;;;;;;5057085;28;20459;-82
2023/11/03 12:52:35;;;;;;;8.40;1.50;;;;;;;;;;5055031;28;20411;-82
2023/11/03 12:55:02;;;;;;;8.27;1.23;;;;;;;;;;5039759;28;20463;-82
2023/11/03 12:57:39;;;;;;;4.63;1.90;;;;;;;;;;5039547;28;20443;-81
2023/11/03 13:00:08;;;;;;;6.47;1.97;;;;;;;;;;5056651;28;20455;-81
2023/11/03 13:02:37;;;;;;;5.87;1.57;;;;;;;;;;5056692;28;20415;-81
2023/11/03 13:05:04;;;;;;;14.37;3.20;;;;;;;;;;5039775;28;20405;-81
2023/11/03 13:07:30;;;;;;;2.70;1.03;;;;;;;;;;5056641;28;20419;-81
2023/11/03 13:09:56;;;;;;;6.23;2.00;;;;;;;;;;5039135;28;20471;-82
2023/11/03 13:12:22;;;;;;;10.50;1.80;;;;;;;;;;5055460;28;20441;-81
2023/11/03 13:14:48;;;;;;;7.13;1.60;;;;;;;;;;5055997;28;20408;-82
2023/11/03 13:17:14;;;;;;;5.00;1.53;;;;;;;;;;5055389;28;20470;-81
2023/11/03 13:19:43;;;;;;;10.40;1.97;;;;;;;;;;5055718;28;20423;-82
2023/11/03 13:22:10;;;;;;;4.10;1.80;;;;;;;;;;5056423;28;20408;-81
2023/11/03 13:24:36;;;;;;;6.03;2.23;;;;;;;;;;5054817;28;20420;-81
2023/11/03 13:27:02;;;;;;;3.03;1.00;;;;;;;;;;5056467;28;20436;-82
2023/11/03 13:29:28;;;;;;;6.73;1.50;;;;;;;;;;5056204;28;20480;-81
2023/11/03 13:31:54;;;;;;;3.87;1.60;;;;;;;;;;5025882;28;20441;-82
2023/11/03 13:34:20;;;;;;;5.83;1.10;;;;;;;;;;5035702;28;20466;-82
2023/11/03 13:36:46;;;;;;;3.60;1.10;;;;;;;;;;5036302;28;20440;-82
2023/11/03 13:39:13;;;;;;;6.37;1.63;;;;;;;;;;5035640;28;20992;-81
2023/11/03 13:41:39;;;;;;;4.23;1.90;;;;;;;;;;5036392;28;20419;-81
2023/11/03 13:44:06;;;;;;;4.63;1.87;;;;;;;;;;5036414;28;20417;-82
2023/11/03 13:46:32;;;;;;;4.40;1.67;;;;;;;;;;5034968;28;20404;-81
2023/11/03 13:48:59;;;;;;;9.47;1.70;;;;;;;;;;5035955;28;20457;-82
2023/11/03 13:51:25;;;;;;;3.23;1.50;;;;;;;;;;5035283;28;20428;-81
2023/11/03 13:53:51;;;;;;;7.90;1.67;;;;;;;;;;5034946;28;20421;-81
2023/11/03 13:56:21;;;;;;;5.60;1.13;;;;;;;;;;5035878;28;20760;-81
2023/11/03 13:58:48;;;;;;;8.23;1.40;;;;;;;;;;5034698;28;20421;-81
2023/11/03 14:01:14;;;;;;;8.60;1.80;;;;;;;;;;5034516;28;20517;-81
2023/11/03 14:03:40;;;;;;;4.40;1.33;;;;;;;;;;5035504;28;20496;-81
2023/11/03 14:06:07;;;;;;;7.87;1.50;;;;;;;;;;5036225;28;20439;-81
2023/11/03 14:08:33;;;;;;;4.97;1.70;;;;;;;;;;5014780;28;20481;-81
2023/11/03 14:11:04;;;;;;;7.20;1.10;;;;;;;;;;5014764;28;20418;-81
2023/11/03 14:13:32;;;;;;;3.83;1.00;;;;;;;;;;5015737;28;20433;-81
2023/11/03 14:16:00;;;;;;;4.40;1.47;;;;;;;;;;5014523;28;20805;-81
2023/11/03 14:18:26;;;;;;;4.37;1.30;;;;;;;;;;5016265;28;20763;-81
2023/11/03 14:20:57;;;;;;;5.50;1.43;;;;;;;;;;5015236;28;20422;-81
2023/11/03 14:23:27;;;;;;;9.03;1.87;;;;;;;;;;5015988;28;20448;-81
2023/11/03 14:25:54;;;;;;;6.97;1.50;;;;;;;;;;5018259;28;20976;-81
2023/11/03 14:28:20;;;;;;;6.77;1.30;;;;;;;;;;5017955;28;20499;-81
2023/11/03 14:30:48;;;;;;;5.77;1.30;;;;;;;;;;5035425;28;20412;-81
2023/11/03 14:33:14;;;;;;;8.03;2.50;;;;;;;;;;5015124;28;20767;-81
2023/11/03 14:35:41;;;;;;;6.00;1.43;;;;;;;;;;5014705;28;20922;-81
2023/11/03 14:38:09;;;;;;;14.80;1.77;;;;;;;;;;5014598;28;20422;-82
2023/11/03 14:40:35;;;;;;;2.60;1.60;;;;;;;;;;5015708;28;20739;-82